Time;durP1;ratioP1;P1;durP2;ratioP2;P2;SDS_P1;SDS_P2;PMS_P1;PMS_P2;Temp;Humidity;BMP_temperature;BMP_pressure;BME280_temperature;BME280_humidity;BME280_pressure;Samples;Min_cycle;Max_cycle;Signal;HPM_P1;HPM_P2
2021/05/09 00:01:21;;;;;;;3.75;1.95;;;;;;;;;;5023585;28;20399;-70
2021/05/09 00:03:47;;;;;;;6.13;2.10;;;;;;;;;;5020313;28;20133;-70
2021/05/09 00:06:14;;;;;;;4.72;2.05;;;;;;;;;;5065360;28;20015;-70
2021/05/09 00:08:40;;;;;;;7.68;2.10;;;;;;;;;;5052233;28;20028;-70
2021/05/09 00:11:06;;;;;;;5.45;2.00;;;;;;;;;;5098921;28;20039;-70
2021/05/09 00:13:32;;;;;;;4.45;1.95;;;;;;;;;;5051677;28;20053;-71
2021/05/09 00:15:58;;;;;;;3.85;1.88;;;;;;;;;;5065742;28;20026;-69
2021/05/09 00:18:25;;;;;;;4.82;2.10;;;;;;;;;;5022345;28;20010;-70
2021/05/09 00:20:51;;;;;;;3.35;1.70;;;;;;;;;;5097618;28;20028;-70
2021/05/09 00:23:18;;;;;;;4.72;2.10;;;;;;;;;;5043799;28;20051;-71
2021/05/09 00:25:44;;;;;;;4.35;1.90;;;;;;;;;;5053377;28;20017;-70
2021/05/09 00:28:10;;;;;;;7.43;1.88;;;;;;;;;;5041914;28;20022;-69
2021/05/09 00:30:36;;;;;;;3.38;1.70;;;;;;;;;;5016646;28;20120;-72
2021/05/09 00:33:02;;;;;;;8.40;2.40;;;;;;;;;;5030049;28;20110;-69
2021/05/09 00:35:28;;;;;;;4.82;1.70;;;;;;;;;;5028521;28;20174;-69
2021/05/09 00:37:54;;;;;;;6.53;1.95;;;;;;;;;;5029486;28;20469;-70
2021/05/09 00:40:20;;;;;;;8.90;2.10;;;;;;;;;;5029650;28;20064;-69
2021/05/09 00:42:46;;;;;;;6.82;2.10;;;;;;;;;;5028480;28;20029;-68
2021/05/09 00:45:12;;;;;;;4.28;2.08;;;;;;;;;;5029557;28;20022;-69
2021/05/09 00:47:38;;;;;;;4.10;1.90;;;;;;;;;;5029529;28;20106;-69
2021/05/09 00:50:05;;;;;;;5.70;2.10;;;;;;;;;;5029514;28;20056;-69
2021/05/09 00:52:33;;;;;;;5.80;2.25;;;;;;;;;;5028198;28;20101;-69
2021/05/09 00:55:02;;;;;;;4.88;2.22;;;;;;;;;;5028184;28;20017;-69
2021/05/09 00:57:29;;;;;;;4.15;2.10;;;;;;;;;;5027932;28;20026;-69
2021/05/09 00:59:57;;;;;;;3.97;2.05;;;;;;;;;;5029295;28;20018;-69
2021/05/09 01:02:23;;;;;;;4.22;1.90;;;;;;;;;;5029227;28;20026;-69
2021/05/09 01:04:51;;;;;;;7.20;2.40;;;;;;;;;;5029203;28;20579;-70
2021/05/09 01:07:17;;;;;;;6.18;2.55;;;;;;;;;;5029316;28;20009;-69
2021/05/09 01:09:43;;;;;;;4.88;2.45;;;;;;;;;;5010163;28;20030;-69
2021/05/09 01:12:11;;;;;;;4.65;2.60;;;;;;;;;;5009567;28;20107;-69
2021/05/09 01:14:37;;;;;;;4.60;2.40;;;;;;;;;;5041382;28;20116;-69
2021/05/09 01:17:03;;;;;;;3.40;1.80;;;;;;;;;;5008841;28;20382;-70
2021/05/09 01:19:29;;;;;;;5.90;2.80;;;;;;;;;;5009552;28;20390;-69
2021/05/09 01:21:55;;;;;;;4.75;2.35;;;;;;;;;;5009449;28;20026;-68
2021/05/09 01:24:22;;;;;;;10.65;2.75;;;;;;;;;;5009473;28;20444;-69
2021/05/09 01:26:48;;;;;;;4.18;2.35;;;;;;;;;;5040865;28;20046;-70
2021/05/09 01:29:14;;;;;;;4.85;2.38;;;;;;;;;;5009214;28;20056;-69
2021/05/09 01:31:40;;;;;;;4.93;2.58;;;;;;;;;;4993315;28;20034;-70
2021/05/09 01:34:06;;;;;;;6.30;2.65;;;;;;;;;;5020923;28;20171;-68
2021/05/09 01:36:32;;;;;;;4.43;2.10;;;;;;;;;;5021020;28;20037;-68
2021/05/09 01:38:58;;;;;;;6.00;2.50;;;;;;;;;;4989618;28;20022;-69
2021/05/09 01:41:24;;;;;;;4.53;2.38;;;;;;;;;;4989620;28;20033;-69
2021/05/09 01:43:50;;;;;;;5.63;2.53;;;;;;;;;;4989513;28;20036;-71
2021/05/09 01:46:16;;;;;;;5.63;2.53;;;;;;;;;;5020880;28;20030;-70
2021/05/09 01:48:42;;;;;;;5.60;2.70;;;;;;;;;;4989524;28;20076;-69
2021/05/09 01:51:08;;;;;;;7.07;2.42;;;;;;;;;;4989431;28;20482;-69
2021/05/09 01:53:35;;;;;;;4.47;2.25;;;;;;;;;;4989381;28;20528;-68
2021/05/09 01:56:01;;;;;;;5.65;2.33;;;;;;;;;;5020827;28;20551;-68
2021/05/09 01:58:27;;;;;;;4.78;2.83;;;;;;;;;;4989460;28;20026;-68
2021/05/09 02:00:53;;;;;;;4.55;2.40;;;;;;;;;;4989443;28;20023;-68
2021/05/09 02:03:19;;;;;;;5.07;2.60;;;;;;;;;;4989485;28;20102;-69
2021/05/09 02:05:45;;;;;;;5.00;2.70;;;;;;;;;;4989203;28;20546;-68
2021/05/09 02:08:11;;;;;;;4.95;2.92;;;;;;;;;;4989315;28;20027;-69
2021/05/09 02:10:37;;;;;;;5.75;3.03;;;;;;;;;;4989011;28;20065;-71
2021/05/09 02:13:04;;;;;;;6.15;2.80;;;;;;;;;;5020587;28;20019;-69
2021/05/09 02:15:30;;;;;;;5.97;3.15;;;;;;;;;;4988948;28;20098;-69
2021/05/09 02:17:56;;;;;;;6.05;3.53;;;;;;;;;;4988680;28;20054;-69
2021/05/09 02:20:22;;;;;;;5.03;3.08;;;;;;;;;;4988449;28;20027;-71
2021/05/09 02:22:49;;;;;;;6.20;3.20;;;;;;;;;;5019868;28;20394;-68
2021/05/09 02:25:15;;;;;;;6.03;3.35;;;;;;;;;;4994519;28;20036;-69
2021/05/09 02:27:41;;;;;;;6.85;3.70;;;;;;;;;;5008116;28;20038;-68
2021/05/09 02:30:08;;;;;;;6.65;3.65;;;;;;;;;;5026404;28;20028;-72
2021/05/09 02:32:34;;;;;;;6.28;3.20;;;;;;;;;;5115075;28;20647;-69
2021/05/09 02:35:00;;;;;;;8.15;3.55;;;;;;;;;;5113345;28;20044;-68
2021/05/09 02:37:26;;;;;;;6.13;2.85;;;;;;;;;;5114880;28;20076;-70
2021/05/09 02:39:52;;;;;;;7.05;3.15;;;;;;;;;;5114826;28;20057;-69
2021/05/09 02:42:18;;;;;;;4.93;3.08;;;;;;;;;;5113788;28;20063;-68
2021/05/09 02:44:44;;;;;;;5.65;3.25;;;;;;;;;;5114820;28;20058;-71
2021/05/09 02:47:27;;;;;;;8.13;3.25;;;;;;;;;;5114739;28;20030;-69
2021/05/09 02:49:53;;;;;;;4.88;2.75;;;;;;;;;;5115122;28;20080;-69
2021/05/09 02:52:19;;;;;;;5.10;3.10;;;;;;;;;;5032856;28;20109;-69
2021/05/09 02:54:45;;;;;;;5.32;2.92;;;;;;;;;;4991822;28;20011;-69
2021/05/09 02:57:11;;;;;;;6.43;2.90;;;;;;;;;;4992058;28;20421;-69
2021/05/09 02:59:37;;;;;;;5.00;2.55;;;;;;;;;;4992230;28;20095;-68
2021/05/09 03:02:03;;;;;;;5.25;2.80;;;;;;;;;;4992087;28;20031;-70
2021/05/09 03:04:29;;;;;;;5.70;3.20;;;;;;;;;;5023348;28;20022;-67
2021/05/09 03:06:55;;;;;;;5.57;2.80;;;;;;;;;;4991886;28;20027;-72
2021/05/09 03:09:21;;;;;;;5.03;2.85;;;;;;;;;;5023250;28;20022;-72
2021/05/09 03:11:47;;;;;;;5.03;2.67;;;;;;;;;;4991846;28;20030;-71
2021/05/09 03:14:14;;;;;;;7.68;3.00;;;;;;;;;;4991715;28;20658;-69
2021/05/09 03:16:40;;;;;;;6.00;3.17;;;;;;;;;;4991786;28;20376;-68
2021/05/09 03:19:06;;;;;;;5.43;2.85;;;;;;;;;;4991652;28;20026;-69
2021/05/09 03:21:32;;;;;;;5.20;2.88;;;;;;;;;;4991721;28;20061;-69
2021/05/09 03:23:58;;;;;;;4.78;2.58;;;;;;;;;;4991590;28;20536;-69
2021/05/09 03:26:24;;;;;;;5.45;2.70;;;;;;;;;;5022857;28;20038;-71
2021/05/09 03:28:50;;;;;;;4.65;2.70;;;;;;;;;;4991231;28;20483;-70
2021/05/09 03:31:16;;;;;;;5.43;2.90;;;;;;;;;;5003456;28;20048;-72
2021/05/09 03:33:42;;;;;;;4.53;2.50;;;;;;;;;;5042161;28;20037;-69
2021/05/09 03:36:08;;;;;;;4.63;2.78;;;;;;;;;;5009847;28;20026;-68
2021/05/09 03:38:34;;;;;;;5.38;2.70;;;;;;;;;;5009699;28;20079;-69
2021/05/09 03:41:00;;;;;;;6.85;2.78;;;;;;;;;;5009709;28;20459;-69
2021/05/09 03:43:26;;;;;;;5.63;3.13;;;;;;;;;;5009880;28;20471;-70
2021/05/09 03:45:52;;;;;;;7.78;2.60;;;;;;;;;;5009791;28;20034;-69
2021/05/09 03:48:18;;;;;;;5.88;2.72;;;;;;;;;;5009764;28;20049;-68
2021/05/09 03:50:45;;;;;;;4.72;2.60;;;;;;;;;;5041385;28;20644;-68
2021/05/09 03:53:11;;;;;;;5.90;2.75;;;;;;;;;;5041573;28;20030;-70
2021/05/09 03:55:37;;;;;;;6.32;2.45;;;;;;;;;;5041415;28;20097;-69
2021/05/09 03:58:03;;;;;;;7.82;3.47;;;;;;;;;;5009776;28;20030;-69
2021/05/09 04:00:29;;;;;;;6.38;3.00;;;;;;;;;;5009632;28;20018;-71
2021/05/09 04:02:55;;;;;;;8.77;3.25;;;;;;;;;;5009170;28;20047;-70
2021/05/09 04:05:21;;;;;;;4.93;2.63;;;;;;;;;;5009258;28;20427;-69
2021/05/09 04:07:47;;;;;;;5.22;2.80;;;;;;;;;;5009507;28;20053;-68
2021/05/09 04:10:13;;;;;;;5.85;2.78;;;;;;;;;;5009553;28;20034;-69
2021/05/09 04:12:39;;;;;;;4.70;2.80;;;;;;;;;;5041060;28;20030;-68
2021/05/09 04:15:06;;;;;;;6.32;2.30;;;;;;;;;;5040955;28;20145;-69
2021/05/09 04:17:32;;;;;;;5.18;2.83;;;;;;;;;;5009480;28;20033;-69
2021/05/09 04:19:58;;;;;;;4.65;2.50;;;;;;;;;;5009551;28;20028;-68
2021/05/09 04:22:24;;;;;;;4.78;2.80;;;;;;;;;;5009455;28;20026;-68
2021/05/09 04:24:50;;;;;;;5.35;2.67;;;;;;;;;;5037796;28;20044;-68
2021/05/09 04:27:16;;;;;;;6.88;2.50;;;;;;;;;;4989749;28;20068;-69
2021/05/09 04:29:42;;;;;;;4.68;2.63;;;;;;;;;;4988421;28;20035;-70
2021/05/09 04:32:08;;;;;;;5.38;2.55;;;;;;;;;;5110223;28;20041;-69
2021/05/09 04:34:34;;;;;;;5.55;3.00;;;;;;;;;;5083514;28;827316;-68
2021/05/09 04:37:00;;;;;;;5.50;2.63;;;;;;;;;;5113262;28;20027;-68
2021/05/09 04:39:26;;;;;;;5.22;3.10;;;;;;;;;;5113237;28;20027;-69
2021/05/09 04:41:52;;;;;;;9.38;3.58;;;;;;;;;;5111998;28;20019;-68
2021/05/09 04:44:20;;;;;;;5.35;2.60;;;;;;;;;;5111904;28;20027;-69
2021/05/09 04:46:46;;;;;;;6.72;3.22;;;;;;;;;;5113065;28;20107;-69
2021/05/09 04:49:12;;;;;;;6.65;3.33;;;;;;;;;;5111883;28;20057;-69
2021/05/09 04:51:38;;;;;;;5.93;3.50;;;;;;;;;;5112265;28;20028;-69
2021/05/09 04:54:04;;;;;;;7.93;3.80;;;;;;;;;;5111733;28;20024;-68
2021/05/09 04:56:30;;;;;;;5.60;3.05;;;;;;;;;;5111639;28;20024;-68
2021/05/09 04:58:57;;;;;;;6.72;3.15;;;;;;;;;;5112749;28;20023;-70
2021/05/09 05:01:23;;;;;;;5.88;3.40;;;;;;;;;;5111449;28;20020;-72
2021/05/09 05:03:49;;;;;;;5.85;3.20;;;;;;;;;;5112855;28;20020;-69
2021/05/09 05:06:15;;;;;;;6.53;3.35;;;;;;;;;;5112686;28;20460;-69
2021/05/09 05:08:41;;;;;;;8.95;3.75;;;;;;;;;;5111210;28;20122;-69
2021/05/09 05:11:07;;;;;;;6.93;3.95;;;;;;;;;;5112271;28;20038;-68
2021/05/09 05:13:34;;;;;;;7.50;4.80;;;;;;;;;;5112514;28;20051;-69
2021/05/09 05:16:01;;;;;;;11.35;3.70;;;;;;;;;;5111052;28;20128;-69
2021/05/09 05:18:28;;;;;;;12.43;4.32;;;;;;;;;;5112563;28;20507;-69
2021/05/09 05:20:55;;;;;;;9.07;4.05;;;;;;;;;;5112446;27;20095;-68
2021/05/09 05:23:22;;;;;;;10.63;3.72;;;;;;;;;;5112486;28;20107;-69
2021/05/09 05:25:49;;;;;;;8.45;3.55;;;;;;;;;;5111001;28;20036;-69
2021/05/09 05:28:16;;;;;;;7.00;3.40;;;;;;;;;;5112320;28;20035;-69
2021/05/09 05:30:42;;;;;;;8.75;3.47;;;;;;;;;;5064545;28;20018;-68
2021/05/09 05:33:08;;;;;;;8.00;3.72;;;;;;;;;;4989382;28;20484;-71
2021/05/09 05:35:34;;;;;;;6.97;3.90;;;;;;;;;;4988190;28;20034;-69
2021/05/09 05:38:01;;;;;;;10.77;4.05;;;;;;;;;;4989714;28;20030;-71
2021/05/09 05:40:27;;;;;;;5.97;3.40;;;;;;;;;;4989766;28;20402;-69
2021/05/09 05:42:53;;;;;;;8.63;3.72;;;;;;;;;;4989519;28;20432;-72
2021/05/09 05:45:19;;;;;;;13.25;4.13;;;;;;;;;;4989489;28;20025;-73
2021/05/09 05:47:46;;;;;;;6.82;3.40;;;;;;;;;;4989393;28;20036;-70
2021/05/09 05:50:12;;;;;;;7.13;3.50;;;;;;;;;;4989261;28;20523;-68
2021/05/09 05:52:38;;;;;;;8.38;4.05;;;;;;;;;;4988038;28;20421;-69
2021/05/09 05:55:05;;;;;;;6.72;3.10;;;;;;;;;;4989026;28;20026;-68
2021/05/09 05:57:31;;;;;;;7.13;3.53;;;;;;;;;;4989157;28;20022;-69
2021/05/09 05:59:57;;;;;;;9.18;3.92;;;;;;;;;;4989163;28;20018;-68
2021/05/09 06:02:23;;;;;;;7.03;3.45;;;;;;;;;;4988908;28;20470;-70
2021/05/09 06:04:49;;;;;;;9.73;3.22;;;;;;;;;;4988864;28;20085;-69
2021/05/09 06:07:16;;;;;;;6.50;3.60;;;;;;;;;;4987285;28;20057;-72
2021/05/09 06:09:42;;;;;;;8.20;3.53;;;;;;;;;;4989147;28;20030;-70
2021/05/09 06:12:08;;;;;;;7.63;3.45;;;;;;;;;;4989053;28;20030;-70
2021/05/09 06:14:34;;;;;;;11.45;3.95;;;;;;;;;;4987579;28;20022;-68
2021/05/09 06:17:00;;;;;;;8.70;3.63;;;;;;;;;;4988878;28;20023;-70
2021/05/09 06:19:26;;;;;;;7.00;3.60;;;;;;;;;;4988979;28;20080;-69
2021/05/09 06:21:52;;;;;;;7.18;2.97;;;;;;;;;;4987588;28;20022;-69
2021/05/09 06:24:19;;;;;;;7.68;3.22;;;;;;;;;;4987631;28;20042;-69
2021/05/09 06:26:45;;;;;;;11.27;3.97;;;;;;;;;;5004490;28;20030;-69
2021/05/09 06:29:11;;;;;;;15.75;3.78;;;;;;;;;;5008535;28;20018;-73
2021/05/09 06:31:38;;;;;;;16.67;3.00;;;;;;;;;;5087957;28;20106;-69
2021/05/09 06:34:04;;;;;;;11.48;3.67;;;;;;;;;;5111327;28;20070;-68
2021/05/09 06:36:30;;;;;;;8.93;3.70;;;;;;;;;;5111384;28;20024;-69
2021/05/09 06:38:56;;;;;;;6.80;3.30;;;;;;;;;;5111434;28;20019;-68
2021/05/09 06:41:22;;;;;;;7.22;2.50;;;;;;;;;;5111422;28;20024;-69
2021/05/09 06:43:54;;;;;;;9.82;3.35;;;;;;;;;;5110099;28;20468;-68
2021/05/09 06:46:20;;;;;;;6.10;2.70;;;;;;;;;;5111472;28;20028;-68
2021/05/09 06:48:46;;;;;;;9.10;3.25;;;;;;;;;;5111270;28;20072;-69
2021/05/09 06:51:12;;;;;;;8.65;3.60;;;;;;;;;;5051432;28;20045;-69
2021/05/09 06:53:38;;;;;;;7.43;3.15;;;;;;;;;;5019841;28;20543;-72
2021/05/09 06:56:04;;;;;;;6.88;2.97;;;;;;;;;;4988631;28;20034;-72
2021/05/09 06:58:31;;;;;;;7.07;2.72;;;;;;;;;;5019903;28;20014;-69
2021/05/09 07:00:57;;;;;;;5.75;2.65;;;;;;;;;;4988640;28;20022;-69
2021/05/09 07:03:23;;;;;;;5.82;2.60;;;;;;;;;;4988715;28;20026;-69
2021/05/09 07:05:49;;;;;;;6.45;2.60;;;;;;;;;;5020060;28;20027;-72
2021/05/09 07:08:16;;;;;;;7.50;2.92;;;;;;;;;;4988176;28;20129;-69
2021/05/09 07:10:42;;;;;;;7.13;2.90;;;;;;;;;;4988287;28;20035;-69
2021/05/09 07:13:08;;;;;;;6.57;2.70;;;;;;;;;;4988241;28;20487;-73
2021/05/09 07:15:36;;;;;;;9.88;2.33;;;;;;;;;;4991370;28;20426;-69
2021/05/09 07:20:38;;;;;;;9.00;3.10;;;;;;;;;;5029825;28;20389;-68
2021/05/09 07:23:05;;;;;;;4.35;1.92;;;;;;;;;;5022264;28;20020;-67
2021/05/09 07:25:32;;;;;;;7.18;2.45;;;;;;;;;;5062546;28;20053;-68
2021/05/09 07:28:05;;;;;;;7.53;2.78;;;;;;;;;;5132212;27;20030;-68
2021/05/09 07:30:31;;;;;;;6.78;2.47;;;;;;;;;;5027616;28;20453;-68
2021/05/09 07:32:57;;;;;;;5.68;2.47;;;;;;;;;;5030031;28;20096;-68
2021/05/09 07:35:24;;;;;;;6.95;2.60;;;;;;;;;;5035780;28;20397;-69
2021/05/09 07:37:52;;;;;;;8.23;2.63;;;;;;;;;;5022587;28;20428;-69
2021/05/09 07:40:18;;;;;;;6.32;2.38;;;;;;;;;;5053648;28;20039;-70
2021/05/09 07:42:44;;;;;;;7.70;2.70;;;;;;;;;;5075371;28;20018;-68
2021/05/09 07:45:15;;;;;;;7.85;2.97;;;;;;;;;;5083457;28;20133;-70
2021/05/09 07:47:41;;;;;;;9.33;2.90;;;;;;;;;;5027627;28;20111;-70
2021/05/09 07:50:11;;;;;;;7.32;2.03;;;;;;;;;;5010616;28;20044;-70
2021/05/09 07:52:37;;;;;;;7.40;2.60;;;;;;;;;;5010710;28;20030;-69
2021/05/09 07:55:04;;;;;;;7.50;2.67;;;;;;;;;;5010692;28;20033;-70
2021/05/09 07:57:30;;;;;;;6.00;2.08;;;;;;;;;;5042474;28;20053;-70
2021/05/09 07:59:56;;;;;;;17.02;2.05;;;;;;;;;;5010466;28;20061;-71
2021/05/09 08:02:22;;;;;;;6.10;2.15;;;;;;;;;;5043902;28;20029;-73
2021/05/09 08:04:48;;;;;;;8.32;2.28;;;;;;;;;;5021748;28;20034;-72
2021/05/09 08:07:14;;;;;;;11.40;2.72;;;;;;;;;;5030312;28;20385;-72
2021/05/09 08:09:40;;;;;;;7.40;2.70;;;;;;;;;;5030090;28;20081;-71
2021/05/09 08:12:07;;;;;;;6.75;2.47;;;;;;;;;;5030008;28;20108;-70
2021/05/09 08:14:33;;;;;;;8.32;2.65;;;;;;;;;;5030187;28;20025;-71
2021/05/09 08:16:59;;;;;;;10.75;2.55;;;;;;;;;;5029965;28;20410;-71
2021/05/09 08:19:25;;;;;;;8.85;2.60;;;;;;;;;;5030149;28;20022;-72
2021/05/09 08:21:51;;;;;;;12.55;2.50;;;;;;;;;;5030297;28;20022;-71
2021/05/09 08:24:18;;;;;;;13.00;3.22;;;;;;;;;;5029763;28;20029;-71
2021/05/09 08:26:44;;;;;;;11.73;2.53;;;;;;;;;;5028624;28;20022;-71
2021/05/09 08:29:10;;;;;;;10.88;2.75;;;;;;;;;;5029832;28;20100;-71
2021/05/09 08:31:36;;;;;;;17.25;2.67;;;;;;;;;;4999503;28;20043;-70
2021/05/09 08:34:03;;;;;;;19.30;2.83;;;;;;;;;;4998368;28;20078;-69
2021/05/09 08:36:29;;;;;;;16.20;3.70;;;;;;;;;;5009616;28;20075;-69
2021/05/09 08:38:55;;;;;;;14.52;3.30;;;;;;;;;;5008508;28;20033;-69
2021/05/09 08:41:25;;;;;;;13.75;2.97;;;;;;;;;;5009205;28;20026;-69
2021/05/09 08:43:51;;;;;;;10.95;3.13;;;;;;;;;;5009933;28;20018;-73
2021/05/09 08:46:20;;;;;;;12.98;3.50;;;;;;;;;;5009835;28;20505;-70
2021/05/09 08:48:47;;;;;;;8.35;3.30;;;;;;;;;;5008540;28;20022;-69
2021/05/09 08:51:13;;;;;;;9.23;2.83;;;;;;;;;;5009791;28;20470;-70
2021/05/09 08:53:39;;;;;;;7.70;2.53;;;;;;;;;;5009777;28;20037;-72
2021/05/09 08:56:05;;;;;;;20.88;2.63;;;;;;;;;;5008436;28;20026;-69
2021/05/09 08:58:31;;;;;;;8.65;2.60;;;;;;;;;;5009747;28;20037;-69
2021/05/09 09:00:57;;;;;;;9.52;2.92;;;;;;;;;;5009635;28;20030;-70
2021/05/09 09:03:23;;;;;;;7.95;2.63;;;;;;;;;;5009833;28;20026;-69
2021/05/09 09:05:51;;;;;;;9.68;2.75;;;;;;;;;;5009559;28;20083;-69
2021/05/09 09:08:17;;;;;;;10.30;2.78;;;;;;;;;;5008098;28;20569;-72
2021/05/09 09:10:44;;;;;;;10.07;2.78;;;;;;;;;;5009381;28;20120;-69
2021/05/09 09:13:29;;;;;;;11.57;3.10;;;;;;;;;;5009578;28;20022;-70
2021/05/09 09:15:55;;;;;;;7.30;2.47;;;;;;;;;;5009358;28;20034;-71
2021/05/09 09:18:31;;;;;;;12.25;2.40;;;;;;;;;;5009447;28;20471;-69
2021/05/09 09:20:57;;;;;;;8.32;2.47;;;;;;;;;;5008164;28;20033;-69
2021/05/09 09:23:24;;;;;;;9.70;2.55;;;;;;;;;;5009435;28;20021;-70
2021/05/09 09:25:50;;;;;;;6.70;2.25;;;;;;;;;;5007828;28;20103;-70
2021/05/09 09:28:18;;;;;;;9.02;3.00;;;;;;;;;;5009075;28;20022;-70
2021/05/09 09:30:53;;;;;;;5.00;1.77;;;;;;;;;;5000924;28;20600;-70
2021/05/09 09:33:19;;;;;;;6.70;2.40;;;;;;;;;;4988265;28;20023;-71
2021/05/09 09:35:46;;;;;;;6.50;2.40;;;;;;;;;;4988539;28;20470;-73
2021/05/09 09:38:21;;;;;;;7.25;2.53;;;;;;;;;;4989038;28;20386;-70
2021/05/09 09:41:06;;;;;;;7.88;2.45;;;;;;;;;;4989592;28;20026;-70
2021/05/09 09:43:32;;;;;;;6.53;2.40;;;;;;;;;;4988293;28;20077;-70
2021/05/09 09:45:58;;;;;;;9.52;2.28;;;;;;;;;;4989196;28;20466;-73
2021/05/09 09:48:38;;;;;;;5.25;1.80;;;;;;;;;;4989153;28;20023;-70
2021/05/09 09:51:04;;;;;;;7.63;2.58;;;;;;;;;;4989581;28;20034;-70
2021/05/09 09:53:33;;;;;;;4.05;1.70;;;;;;;;;;4988318;28;20436;-70
2021/05/09 09:56:00;;;;;;;6.22;2.25;;;;;;;;;;4989440;28;20510;-69
2021/05/09 09:58:39;;;;;;;7.20;2.17;;;;;;;;;;4989155;28;20026;-70
2021/05/09 10:01:05;;;;;;;7.18;2.05;;;;;;;;;;4989143;28;20030;-71
2021/05/09 10:03:31;;;;;;;5.88;2.28;;;;;;;;;;4989629;28;20026;-70
2021/05/09 10:05:59;;;;;;;7.07;2.53;;;;;;;;;;4989338;28;20390;-70
2021/05/09 10:08:26;;;;;;;5.25;1.98;;;;;;;;;;4988008;28;20469;-70
2021/05/09 10:10:52;;;;;;;7.32;2.22;;;;;;;;;;4989131;28;20139;-70
2021/05/09 10:13:19;;;;;;;5.78;1.90;;;;;;;;;;4987681;28;20494;-70
2021/05/09 10:15:45;;;;;;;6.32;1.95;;;;;;;;;;4988814;28;20034;-71
2021/05/09 10:18:12;;;;;;;6.65;2.42;;;;;;;;;;4987855;28;20023;-70
2021/05/09 10:20:40;;;;;;;5.82;1.85;;;;;;;;;;4989176;28;20031;-70
2021/05/09 10:23:07;;;;;;;4.95;1.58;;;;;;;;;;4989074;28;20118;-70
2021/05/09 10:25:46;;;;;;;5.22;1.92;;;;;;;;;;4987628;28;20030;-72
2021/05/09 10:28:13;;;;;;;4.82;1.83;;;;;;;;;;4989092;28;20084;-71
2021/05/09 10:30:48;;;;;;;6.22;1.95;;;;;;;;;;4988868;28;20026;-70
2021/05/09 10:33:33;;;;;;;5.15;2.00;;;;;;;;;;4987405;28;20023;-70
2021/05/09 10:35:59;;;;;;;5.78;1.73;;;;;;;;;;4988781;28;20035;-70
2021/05/09 10:38:25;;;;;;;7.63;1.80;;;;;;;;;;4988745;28;20106;-69
2021/05/09 10:41:09;;;;;;;5.97;1.98;;;;;;;;;;4987361;28;20110;-70
2021/05/09 10:43:35;;;;;;;4.47;1.77;;;;;;;;;;4987506;28;20459;-70
2021/05/09 10:46:01;;;;;;;6.03;1.80;;;;;;;;;;4988615;28;20109;-69
2021/05/09 10:48:32;;;;;;;5.32;1.88;;;;;;;;;;4988977;28;20076;-70
2021/05/09 10:51:04;;;;;;;5.03;1.90;;;;;;;;;;4990692;28;20042;-70
2021/05/09 10:53:33;;;;;;;6.88;2.17;;;;;;;;;;4991934;28;20052;-69
2021/05/09 10:56:03;;;;;;;5.75;1.83;;;;;;;;;;4991748;28;20042;-70
2021/05/09 10:58:48;;;;;;;5.88;1.73;;;;;;;;;;4992083;28;20075;-69
2021/05/09 11:01:17;;;;;;;5.22;1.92;;;;;;;;;;4992055;28;20022;-71
2021/05/09 11:03:43;;;;;;;5.25;1.73;;;;;;;;;;4990656;28;20454;-69
2021/05/09 11:06:11;;;;;;;5.82;1.58;;;;;;;;;;4991844;28;20413;-70
2021/05/09 11:08:43;;;;;;;7.22;2.10;;;;;;;;;;4991966;28;20109;-70
2021/05/09 11:11:19;;;;;;;5.00;1.83;;;;;;;;;;4990444;28;20404;-70
2021/05/09 11:14:07;;;;;;;5.18;1.75;;;;;;;;;;4991724;28;20026;-74
2021/05/09 11:16:38;;;;;;;5.50;1.98;;;;;;;;;;5000772;28;20121;-70
2021/05/09 11:19:13;;;;;;;6.50;1.53;;;;;;;;;;4991885;28;20080;-69
2021/05/09 11:21:44;;;;;;;5.65;2.05;;;;;;;;;;4990628;28;20023;-69
2021/05/09 11:24:12;;;;;;;6.15;1.88;;;;;;;;;;4991572;28;20019;-70
2021/05/09 11:26:42;;;;;;;5.05;1.67;;;;;;;;;;4991564;28;20034;-70
2021/05/09 11:29:11;;;;;;;6.07;1.95;;;;;;;;;;4990400;28;20034;-70
2021/05/09 11:31:56;;;;;;;6.57;1.88;;;;;;;;;;4990077;28;20078;-69
2021/05/09 11:34:23;;;;;;;4.95;1.85;;;;;;;;;;4990098;28;20506;-69
2021/05/09 11:36:50;;;;;;;6.57;1.98;;;;;;;;;;4991558;28;20075;-69
2021/05/09 11:39:16;;;;;;;6.18;2.00;;;;;;;;;;4990090;28;20121;-69
2021/05/09 11:41:52;;;;;;;6.13;1.80;;;;;;;;;;4991367;28;20105;-70
2021/05/09 11:44:18;;;;;;;7.50;1.90;;;;;;;;;;4991481;28;20023;-70
2021/05/09 11:46:44;;;;;;;7.10;1.88;;;;;;;;;;4995107;28;20064;-70
2021/05/09 11:49:17;;;;;;;5.32;1.83;;;;;;;;;;5042683;28;20475;-69
2021/05/09 11:52:19;;;;;;;4.72;1.60;;;;;;;;;;5042419;28;20164;-69
2021/05/09 11:54:45;;;;;;;;;;;;;;;;;;5042062;28;20041;-70
2021/05/09 11:57:12;;;;;;;5.13;1.52;;;;;;;;;;5010773;28;19940;-69
2021/05/09 11:59:38;;;;;;;4.85;1.60;;;;;;;;;;5010494;28;20101;-69
2021/05/09 12:02:13;;;;;;;5.32;1.52;;;;;;;;;;5010514;28;20049;-69
2021/05/09 12:04:42;;;;;;;6.18;2.17;;;;;;;;;;5010598;28;20022;-69
2021/05/09 12:07:09;;;;;;;12.30;2.00;;;;;;;;;;5010645;28;20532;-69
2021/05/09 12:09:35;;;;;;;6.57;1.65;;;;;;;;;;5010751;28;20101;-69
2021/05/09 12:12:01;;;;;;;6.70;1.92;;;;;;;;;;5010480;28;20038;-69
2021/05/09 12:14:28;;;;;;;4.90;1.30;;;;;;;;;;5010592;28;20054;-69
2021/05/09 12:16:55;;;;;;;6.25;2.13;;;;;;;;;;5010394;28;20036;-69
2021/05/09 12:19:31;;;;;;;4.80;1.63;;;;;;;;;;5010278;28;20059;-69
2021/05/09 12:21:59;;;;;;;5.57;1.52;;;;;;;;;;5010335;28;20030;-69
2021/05/09 12:24:25;;;;;;;7.85;1.58;;;;;;;;;;5010126;28;20025;-69
2021/05/09 12:27:03;;;;;;;7.07;1.88;;;;;;;;;;5010273;28;20057;-69
2021/05/09 12:29:30;;;;;;;5.40;1.50;;;;;;;;;;5010062;28;20018;-69
2021/05/09 12:32:14;;;;;;;6.22;1.42;;;;;;;;;;4992266;28;20130;-70
2021/05/09 12:34:40;;;;;;;4.40;1.42;;;;;;;;;;5021875;28;20069;-69
2021/05/09 12:37:07;;;;;;;5.00;1.50;;;;;;;;;;5022028;28;20037;-70
2021/05/09 12:39:33;;;;;;;4.93;1.52;;;;;;;;;;4990461;28;20043;-69
2021/05/09 12:42:01;;;;;;;3.85;1.20;;;;;;;;;;4990455;28;20499;-73
2021/05/09 12:44:28;;;;;;;5.78;1.65;;;;;;;;;;4990217;28;20320;-69
2021/05/09 12:46:54;;;;;;;5.78;1.60;;;;;;;;;;5022066;28;20078;-69
2021/05/09 12:49:21;;;;;;;5.78;1.65;;;;;;;;;;5022023;28;20030;-69
2021/05/09 12:51:58;;;;;;;6.60;1.90;;;;;;;;;;4990085;28;20507;-68
2021/05/09 12:54:41;;;;;;;5.72;1.70;;;;;;;;;;5021675;28;20502;-69
2021/05/09 12:57:20;;;;;;;4.75;1.45;;;;;;;;;;5021763;28;20023;-69
2021/05/09 12:59:47;;;;;;;4.85;1.40;;;;;;;;;;4990223;28;20060;-69
2021/05/09 13:02:14;;;;;;;6.43;1.40;;;;;;;;;;4990124;28;20026;-69
2021/05/09 13:04:59;;;;;;;4.22;1.48;;;;;;;;;;4989951;28;20022;-68
2021/05/09 13:07:26;;;;;;;4.65;1.40;;;;;;;;;;4989998;28;20050;-72
2021/05/09 13:09:52;;;;;;;3.67;1.30;;;;;;;;;;5021348;28;20519;-69
2021/05/09 13:12:19;;;;;;;5.32;1.55;;;;;;;;;;4989224;28;20053;-69
2021/05/09 13:14:45;;;;;;;4.88;1.35;;;;;;;;;;4990038;28;20065;-73
2021/05/09 13:17:12;;;;;;;6.80;1.90;;;;;;;;;;4989932;28;20096;-69
2021/05/09 13:19:39;;;;;;;4.22;1.45;;;;;;;;;;4990036;28;20467;-69
2021/05/09 13:22:06;;;;;;;7.53;1.50;;;;;;;;;;4989813;28;20026;-70
2021/05/09 13:24:32;;;;;;;7.43;1.48;;;;;;;;;;4989555;28;20027;-69
2021/05/09 13:26:59;;;;;;;11.88;2.20;;;;;;;;;;4989693;28;20010;-71
2021/05/09 13:29:25;;;;;;;6.15;1.60;;;;;;;;;;5021158;28;20502;-68
2021/05/09 13:31:51;;;;;;;5.95;1.73;;;;;;;;;;5020938;28;20047;-69
2021/05/09 13:34:17;;;;;;;7.55;2.80;;;;;;;;;;4989464;28;20046;-72
2021/05/09 13:36:45;;;;;;;4.22;1.40;;;;;;;;;;4989660;28;20072;-69
2021/05/09 13:39:11;;;;;;;5.57;1.65;;;;;;;;;;4989717;28;20048;-69
2021/05/09 13:41:37;;;;;;;3.65;1.30;;;;;;;;;;4989563;28;20030;-70
2021/05/09 13:44:03;;;;;;;5.18;1.45;;;;;;;;;;4988046;28;20076;-70
2021/05/09 13:46:29;;;;;;;4.32;1.60;;;;;;;;;;4989313;28;20022;-73
2021/05/09 13:48:55;;;;;;;5.20;1.65;;;;;;;;;;5008974;28;20105;-70
2021/05/09 13:51:21;;;;;;;4.72;1.58;;;;;;;;;;5008897;28;20076;-69
2021/05/09 13:53:47;;;;;;;8.38;2.15;;;;;;;;;;5009119;28;20067;-69
2021/05/09 13:56:13;;;;;;;3.45;1.30;;;;;;;;;;5008891;28;20022;-68
2021/05/09 13:58:39;;;;;;;6.88;1.70;;;;;;;;;;5008876;28;20049;-69
2021/05/09 14:01:06;;;;;;;7.72;2.22;;;;;;;;;;5009037;28;20037;-69
2021/05/09 14:03:32;;;;;;;4.15;1.55;;;;;;;;;;5040507;28;20033;-69
2021/05/09 14:05:58;;;;;;;6.70;1.92;;;;;;;;;;5008461;28;20544;-68
2021/05/09 14:08:24;;;;;;;6.35;2.10;;;;;;;;;;5008881;28;20083;-72
2021/05/09 14:10:50;;;;;;;7.90;2.05;;;;;;;;;;5008652;28;20058;-69
2021/05/09 14:13:17;;;;;;;6.15;2.20;;;;;;;;;;5008522;28;20029;-68
2021/05/09 14:15:44;;;;;;;4.53;1.80;;;;;;;;;;5008485;28;20487;-69
2021/05/09 14:18:10;;;;;;;4.90;1.90;;;;;;;;;;5008480;28;20033;-68
2021/05/09 14:20:37;;;;;;;8.43;2.67;;;;;;;;;;5008619;28;20029;-69
2021/05/09 14:23:03;;;;;;;7.00;2.50;;;;;;;;;;5009537;28;20022;-68
2021/05/09 14:25:29;;;;;;;8.77;2.15;;;;;;;;;;5012086;28;20089;-68
2021/05/09 14:27:55;;;;;;;10.52;2.35;;;;;;;;;;5043721;28;20723;-68
2021/05/09 14:30:21;;;;;;;5.85;2.00;;;;;;;;;;5038916;28;20034;-68
2021/05/09 14:32:48;;;;;;;5.28;1.88;;;;;;;;;;4992380;28;20095;-71
2021/05/09 14:35:15;;;;;;;8.10;2.45;;;;;;;;;;4992182;28;20085;-69
2021/05/09 14:37:41;;;;;;;4.95;2.15;;;;;;;;;;5023826;28;20026;-69
2021/05/09 14:40:07;;;;;;;7.00;2.33;;;;;;;;;;4992342;28;20022;-68
2021/05/09 14:42:33;;;;;;;6.70;2.22;;;;;;;;;;4992218;28;20044;-69
2021/05/09 14:44:59;;;;;;;3.05;1.20;;;;;;;;;;5023857;28;20018;-68
2021/05/09 14:47:26;;;;;;;7.15;1.95;;;;;;;;;;4992246;28;20376;-69